Time;durP1;ratioP1;P1;durP2;ratioP2;P2;SDS_P1;SDS_P2;PMS_P1;PMS_P2;Temp;Humidity;BMP_temperature;BMP_pressure;BME280_temperature;BME280_humidity;BME280_pressure;Samples;Min_cycle;Max_cycle;Signal;HPM_P1;HPM_P2
2023/01/31 00:00:01;;;;;;;4.50;1.10;;;;;;;;;;6212435;28;20549;-81
2023/01/31 00:03:11;;;;;;;1.10;1.00;;;;;;;;;;6212097;28;20297;-80
2023/01/31 00:06:21;;;;;;;1.30;0.90;;;;;;;;;;6212663;28;20292;-80
2023/01/31 00:09:27;;;;;;;2.70;0.80;;;;;;;;;;6195438;28;20383;-80
2023/01/31 00:12:32;;;;;;;2.33;0.90;;;;;;;;;;6195426;28;20304;-81
2023/01/31 00:15:37;;;;;;;2.23;1.03;;;;;;;;;;6210888;28;20298;-80
2023/01/31 00:18:43;;;;;;;1.47;0.80;;;;;;;;;;6212206;28;20297;-80
2023/01/31 00:21:50;;;;;;;1.10;1.00;;;;;;;;;;6212344;28;20583;-80
2023/01/31 00:24:55;;;;;;;0.90;0.90;;;;;;;;;;6212428;28;20389;-81
2023/01/31 00:28:00;;;;;;;5.27;0.90;;;;;;;;;;6212036;28;20289;-80
2023/01/31 00:31:05;;;;;;;1.60;0.90;;;;;;;;;;6213082;28;20297;-81
2023/01/31 00:34:12;;;;;;;0.80;0.80;;;;;;;;;;6194970;28;20304;-80
2023/01/31 00:37:22;;;;;;;0.80;0.80;;;;;;;;;;6212410;28;20601;-81
2023/01/31 00:40:29;;;;;;;1.23;1.20;;;;;;;;;;6195040;28;20305;-80
2023/01/31 00:43:34;;;;;;;0.80;0.80;;;;;;;;;;6195311;28;20311;-80
2023/01/31 00:46:39;;;;;;;1.43;0.80;;;;;;;;;;6195509;28;20292;-80
2023/01/31 00:49:45;;;;;;;0.70;0.70;;;;;;;;;;6223374;28;20321;-81
2023/01/31 00:52:51;;;;;;;0.60;0.60;;;;;;;;;;6224975;28;20247;-79
2023/01/31 00:56:06;;;;;;;0.60;0.60;;;;;;;;;;6210226;28;20234;-81
2023/01/31 00:59:13;;;;;;;1.00;1.00;;;;;;;;;;6209774;28;20297;-80
2023/01/31 01:02:19;;;;;;;0.70;0.70;;;;;;;;;;6209094;28;20284;-81
2023/01/31 01:05:25;;;;;;;0.63;0.63;;;;;;;;;;6219377;28;20451;-81
2023/01/31 01:08:31;;;;;;;4.23;0.80;;;;;;;;;;6211239;28;20309;-80
2023/01/31 01:11:36;;;;;;;1.30;0.63;;;;;;;;;;6180392;28;20285;-81
2023/01/31 01:14:42;;;;;;;0.80;0.80;;;;;;;;;;6194188;28;20542;-81
2023/01/31 01:17:46;;;;;;;0.73;0.60;;;;;;;;;;6194384;28;20330;-79
2023/01/31 01:20:52;;;;;;;2.57;0.73;;;;;;;;;;6211083;28;20293;-80
2023/01/31 01:24:01;;;;;;;0.80;0.80;;;;;;;;;;6193367;28;20303;-81
2023/01/31 01:27:06;;;;;;;3.00;0.90;;;;;;;;;;6210482;28;20596;-80
2023/01/31 01:30:12;;;;;;;1.73;0.70;;;;;;;;;;6193694;28;20301;-80
2023/01/31 01:33:18;;;;;;;0.60;0.60;;;;;;;;;;6193716;28;20295;-80
2023/01/31 01:36:23;;;;;;;3.83;0.80;;;;;;;;;;6194076;28;20293;-80
2023/01/31 01:39:30;;;;;;;0.60;0.60;;;;;;;;;;6210684;28;20304;-81
2023/01/31 01:42:36;;;;;;;0.60;0.60;;;;;;;;;;6193508;28;20292;-80
2023/01/31 01:45:42;;;;;;;3.03;0.80;;;;;;;;;;6193408;28;20292;-80
2023/01/31 01:48:50;;;;;;;0.90;0.90;;;;;;;;;;6210445;28;20333;-81
2023/01/31 01:51:57;;;;;;;0.73;0.70;;;;;;;;;;6194453;28;20299;-80
2023/01/31 01:55:14;;;;;;;1.23;0.57;;;;;;;;;;6193108;28;20606;-81
2023/01/31 01:58:22;;;;;;;0.60;0.60;;;;;;;;;;6210275;28;20374;-81
2023/01/31 02:01:32;;;;;;;0.67;0.67;;;;;;;;;;6211311;28;20313;-80
2023/01/31 02:04:39;;;;;;;0.73;0.73;;;;;;;;;;6185277;28;20306;-80
2023/01/31 02:07:49;;;;;;;2.33;0.60;;;;;;;;;;6168957;28;20473;-79
2023/01/31 02:10:59;;;;;;;0.70;0.70;;;;;;;;;;6158350;28;20391;-81
2023/01/31 02:14:07;;;;;;;0.67;0.60;;;;;;;;;;6162754;28;20310;-80
2023/01/31 02:17:13;;;;;;;0.70;0.60;;;;;;;;;;6161793;28;20293;-80
2023/01/31 02:20:33;;;;;;;0.70;0.70;;;;;;;;;;6161392;28;20499;-80
2023/01/31 02:24:09;;;;;;;1.40;0.70;;;;;;;;;;6161059;28;20508;-79
2023/01/31 02:27:53;;;;;;;0.60;0.60;;;;;;;;;;6162884;28;20295;-81
2023/01/31 02:31:37;;;;;;;0.77;0.77;;;;;;;;;;6160666;28;20313;-80
2023/01/31 02:34:48;;;;;;;1.30;0.90;;;;;;;;;;6147241;28;20294;-80
2023/01/31 02:38:01;;;;;;;1.90;0.70;;;;;;;;;;6162229;28;20277;-80
2023/01/31 02:41:15;;;;;;;1.83;0.60;;;;;;;;;;6166887;28;20272;-81
2023/01/31 02:47:58;;;;;;;0.50;0.50;;;;;;;;;;6169056;28;20336;-78
2023/01/31 02:51:08;;;;;;;1.00;0.73;;;;;;;;;;6150659;29;20302;-80
2023/01/31 02:54:19;;;;;;;0.60;0.60;;;;;;;;;;6165053;28;20383;-80
2023/01/31 02:57:23;;;;;;;2.17;0.83;;;;;;;;;;6165422;28;20311;-80
2023/01/31 03:00:29;;;;;;;0.60;0.60;;;;;;;;;;6165354;28;20303;-80
2023/01/31 03:03:36;;;;;;;0.60;0.60;;;;;;;;;;6173355;28;20309;-80
2023/01/31 03:06:58;;;;;;;0.50;0.50;;;;;;;;;;6189785;28;20294;-80
2023/01/31 03:10:25;;;;;;;0.70;0.70;;;;;;;;;;6188866;28;20317;-80
2023/01/31 03:13:49;;;;;;;1.07;0.50;;;;;;;;;;6190291;28;20299;-80
2023/01/31 03:20:27;;;;;;;0.50;0.50;;;;;;;;;;6189205;28;20290;-80
2023/01/31 03:23:37;;;;;;;0.60;0.60;;;;;;;;;;6156226;28;20300;-80
2023/01/31 03:26:43;;;;;;;0.70;0.70;;;;;;;;;;6189890;28;20300;-80
2023/01/31 03:29:49;;;;;;;1.00;0.70;;;;;;;;;;6172991;28;20305;-80
2023/01/31 03:32:58;;;;;;;0.63;0.63;;;;;;;;;;6172045;28;20440;-80
2023/01/31 03:36:10;;;;;;;0.60;0.60;;;;;;;;;;6188350;28;20297;-81
2023/01/31 03:39:25;;;;;;;0.50;0.50;;;;;;;;;;6189500;28;20328;-81
2023/01/31 03:42:37;;;;;;;3.03;0.87;;;;;;;;;;6189627;28;20304;-81
2023/01/31 03:45:47;;;;;;;1.33;0.80;;;;;;;;;;6187852;28;20305;-80
2023/01/31 03:48:54;;;;;;;0.70;0.70;;;;;;;;;;6188889;28;20297;-81
2023/01/31 03:52:05;;;;;;;0.70;0.70;;;;;;;;;;6172577;28;20343;-81
2023/01/31 03:55:16;;;;;;;0.50;0.50;;;;;;;;;;6189222;28;20290;-81
2023/01/31 03:58:28;;;;;;;0.60;0.60;;;;;;;;;;6186320;28;20299;-80
2023/01/31 04:01:36;;;;;;;0.87;0.60;;;;;;;;;;6173843;28;20310;-80
2023/01/31 04:04:45;;;;;;;0.70;0.70;;;;;;;;;;6181157;28;20309;-80
2023/01/31 04:07:50;;;;;;;0.60;0.60;;;;;;;;;;6180976;28;20272;-79
2023/01/31 04:11:04;;;;;;;0.60;0.60;;;;;;;;;;6187872;28;20306;-80
2023/01/31 04:14:10;;;;;;;4.13;0.80;;;;;;;;;;6188852;28;20313;-80
2023/01/31 04:17:16;;;;;;;0.67;0.67;;;;;;;;;;6187789;28;20286;-81
2023/01/31 04:20:21;;;;;;;0.70;0.70;;;;;;;;;;6186773;28;20619;-80
2023/01/31 04:23:27;;;;;;;1.63;0.70;;;;;;;;;;6187872;28;20480;-80
2023/01/31 04:26:34;;;;;;;0.63;0.63;;;;;;;;;;6188908;28;20288;-80
2023/01/31 04:29:39;;;;;;;2.93;0.70;;;;;;;;;;6188245;28;20320;-80
2023/01/31 04:32:45;;;;;;;0.77;0.77;;;;;;;;;;6188003;28;20303;-80
2023/01/31 04:35:52;;;;;;;1.90;0.70;;;;;;;;;;6188375;28;20293;-80
2023/01/31 04:38:57;;;;;;;1.50;0.70;;;;;;;;;;6186520;28;20485;-80
2023/01/31 04:42:04;;;;;;;0.70;0.70;;;;;;;;;;6188015;28;20303;-81
2023/01/31 04:45:14;;;;;;;0.80;0.63;;;;;;;;;;6171088;28;20292;-81
2023/01/31 04:48:19;;;;;;;0.50;0.50;;;;;;;;;;6187565;28;20295;-81
2023/01/31 04:51:25;;;;;;;0.60;0.60;;;;;;;;;;6188519;28;20303;-81
2023/01/31 04:54:30;;;;;;;0.63;0.63;;;;;;;;;;6186470;28;20292;-81
2023/01/31 04:57:36;;;;;;;2.20;0.50;;;;;;;;;;6187929;28;20311;-81
2023/01/31 05:00:44;;;;;;;0.60;0.60;;;;;;;;;;6186614;28;20327;-80
2023/01/31 05:03:50;;;;;;;0.80;0.80;;;;;;;;;;6197263;28;20296;-81
2023/01/31 05:06:55;;;;;;;2.63;0.80;;;;;;;;;;6211853;28;20291;-81
2023/01/31 05:10:00;;;;;;;0.67;0.60;;;;;;;;;;6193912;28;20298;-80
2023/01/31 05:13:09;;;;;;;0.90;0.90;;;;;;;;;;6211888;28;20294;-80
2023/01/31 05:16:14;;;;;;;0.70;0.70;;;;;;;;;;6197115;28;20289;-80
2023/01/31 05:19:22;;;;;;;0.63;0.63;;;;;;;;;;6215287;28;20299;-80
2023/01/31 05:22:27;;;;;;;0.80;0.80;;;;;;;;;;6228134;28;20261;-80
2023/01/31 05:25:32;;;;;;;1.83;0.70;;;;;;;;;;6225467;28;20287;-81
2023/01/31 05:28:39;;;;;;;0.60;0.60;;;;;;;;;;6222018;28;20297;-80
2023/01/31 05:31:48;;;;;;;0.93;0.60;;;;;;;;;;6212136;28;20298;-81
2023/01/31 05:34:56;;;;;;;1.10;1.00;;;;;;;;;;6210101;28;20301;-80
2023/01/31 05:38:01;;;;;;;2.00;0.70;;;;;;;;;;6178455;28;20279;-80
2023/01/31 05:41:07;;;;;;;0.70;0.70;;;;;;;;;;6211691;28;20271;-79
2023/01/31 05:44:15;;;;;;;0.80;0.80;;;;;;;;;;6211033;28;20288;-81
2023/01/31 05:47:23;;;;;;;0.70;0.70;;;;;;;;;;6211681;28;20304;-80
2023/01/31 05:50:29;;;;;;;0.77;0.60;;;;;;;;;;6197927;28;20300;-80
2023/01/31 05:53:46;;;;;;;0.60;0.60;;;;;;;;;;6216500;28;20581;-81
2023/01/31 05:56:55;;;;;;;1.33;0.87;;;;;;;;;;6211677;28;20295;-82
2023/01/31 06:00:02;;;;;;;2.80;0.70;;;;;;;;;;6211778;28;20298;-81
2023/01/31 06:03:16;;;;;;;0.93;0.80;;;;;;;;;;6210710;28;20308;-80
2023/01/31 06:06:21;;;;;;;6.10;0.70;;;;;;;;;;6211592;28;20299;-81
2023/01/31 06:09:26;;;;;;;0.90;0.67;;;;;;;;;;6210820;28;20290;-80
2023/01/31 06:12:34;;;;;;;2.20;0.80;;;;;;;;;;6190554;28;20293;-81
2023/01/31 06:15:45;;;;;;;2.40;0.73;;;;;;;;;;6191667;28;20307;-80
2023/01/31 06:18:50;;;;;;;0.90;0.90;;;;;;;;;;6191487;28;20618;-81
2023/01/31 06:21:56;;;;;;;3.80;0.80;;;;;;;;;;6192036;28;20463;-81
2023/01/31 06:25:05;;;;;;;2.27;0.80;;;;;;;;;;6191338;28;20291;-80
2023/01/31 06:28:12;;;;;;;2.60;0.80;;;;;;;;;;6190883;28;20290;-80
2023/01/31 06:31:19;;;;;;;1.57;0.90;;;;;;;;;;6190792;28;20285;-80
2023/01/31 06:34:25;;;;;;;3.80;0.70;;;;;;;;;;6173730;28;20306;-81
2023/01/31 06:37:30;;;;;;;1.50;0.93;;;;;;;;;;6174146;28;20362;-82
2023/01/31 06:40:37;;;;;;;6.57;0.90;;;;;;;;;;6190992;28;20301;-81
2023/01/31 06:43:42;;;;;;;1.20;1.10;;;;;;;;;;6190660;28;20296;-82
2023/01/31 06:46:49;;;;;;;0.80;0.80;;;;;;;;;;6191078;28;20298;-80
2023/01/31 06:49:54;;;;;;;2.17;0.80;;;;;;;;;;6189301;28;20587;-80
2023/01/31 06:53:00;;;;;;;1.03;1.00;;;;;;;;;;6188934;28;20298;-81
2023/01/31 06:56:06;;;;;;;2.13;1.20;;;;;;;;;;6190750;28;20266;-80
2023/01/31 06:59:12;;;;;;;2.23;1.20;;;;;;;;;;6190015;28;20286;-81
2023/01/31 07:02:19;;;;;;;11.07;1.17;;;;;;;;;;6188096;28;20289;-81
2023/01/31 07:05:25;;;;;;;2.67;1.00;;;;;;;;;;6180989;28;20377;-80
2023/01/31 07:08:31;;;;;;;5.30;0.90;;;;;;;;;;6166136;28;20302;-79
2023/01/31 07:11:39;;;;;;;0.87;0.87;;;;;;;;;;6184357;28;20584;-80
2023/01/31 07:14:47;;;;;;;0.70;0.70;;;;;;;;;;6189225;28;20310;-80
2023/01/31 07:18:11;;;;;;;1.77;1.10;;;;;;;;;;6164115;28;20298;-81
2023/01/31 07:21:16;;;;;;;1.40;0.70;;;;;;;;;;6194474;28;20295;-80
2023/01/31 07:24:24;;;;;;;0.83;0.80;;;;;;;;;;6188809;28;20298;-81
2023/01/31 07:27:30;;;;;;;5.73;0.80;;;;;;;;;;6173472;28;20590;-81
2023/01/31 07:30:36;;;;;;;0.90;0.77;;;;;;;;;;6189600;28;20298;-80
2023/01/31 07:33:43;;;;;;;2.27;1.10;;;;;;;;;;6172045;28;20309;-80
2023/01/31 07:36:49;;;;;;;3.83;1.00;;;;;;;;;;6190447;28;20295;-80
2023/01/31 07:39:54;;;;;;;2.10;0.80;;;;;;;;;;6188876;28;20298;-81
2023/01/31 07:43:02;;;;;;;1.30;0.70;;;;;;;;;;6189165;28;20294;-80
2023/01/31 07:46:10;;;;;;;0.90;0.90;;;;;;;;;;6190195;28;20297;-80
2023/01/31 07:49:18;;;;;;;2.30;0.90;;;;;;;;;;6171250;28;20301;-80
2023/01/31 07:52:23;;;;;;;2.90;0.90;;;;;;;;;;6189181;28;20298;-80
2023/01/31 07:55:29;;;;;;;1.57;0.80;;;;;;;;;;6187422;28;20301;-80
2023/01/31 07:58:35;;;;;;;3.50;0.90;;;;;;;;;;6188591;28;20572;-78
2023/01/31 08:05:08;;;;;;;1.10;1.10;;;;;;;;;;6207629;28;20592;-81
2023/01/31 08:08:15;;;;;;;14.33;1.00;;;;;;;;;;6212819;28;20297;-81
2023/01/31 08:11:20;;;;;;;1.87;0.93;;;;;;;;;;6197031;28;20461;-79
2023/01/31 08:14:27;;;;;;;0.97;0.67;;;;;;;;;;6211928;28;20593;-81
2023/01/31 08:17:35;;;;;;;0.80;0.80;;;;;;;;;;6195938;28;20301;-80
2023/01/31 08:20:41;;;;;;;3.33;1.00;;;;;;;;;;6212454;28;20287;-80
2023/01/31 08:23:47;;;;;;;4.07;1.10;;;;;;;;;;6212720;28;20301;-79
2023/01/31 08:26:54;;;;;;;1.50;0.80;;;;;;;;;;6196417;28;20300;-80
2023/01/31 08:29:59;;;;;;;1.13;1.00;;;;;;;;;;6195921;28;20300;-80
2023/01/31 08:33:04;;;;;;;4.43;1.10;;;;;;;;;;6213182;28;20304;-80
2023/01/31 08:36:17;;;;;;;3.73;1.40;;;;;;;;;;6212242;28;20289;-79
2023/01/31 08:39:23;;;;;;;2.57;0.93;;;;;;;;;;6212557;28;20305;-80
2023/01/31 08:42:28;;;;;;;2.17;0.80;;;;;;;;;;6212865;28;20476;-80
2023/01/31 08:45:37;;;;;;;4.93;0.93;;;;;;;;;;6195560;28;20452;-80
2023/01/31 08:48:42;;;;;;;1.50;1.00;;;;;;;;;;6212331;28;20428;-81
2023/01/31 08:51:51;;;;;;;2.87;1.10;;;;;;;;;;6212359;28;20584;-80
2023/01/31 08:54:56;;;;;;;4.40;0.70;;;;;;;;;;6194446;28;20301;-80
2023/01/31 08:58:02;;;;;;;0.83;0.83;;;;;;;;;;6194554;28;20584;-79
2023/01/31 09:01:11;;;;;;;3.67;0.90;;;;;;;;;;6212003;28;20299;-80
2023/01/31 09:04:17;;;;;;;0.83;0.83;;;;;;;;;;6210537;28;20305;-81
2023/01/31 09:07:24;;;;;;;0.80;0.80;;;;;;;;;;6212194;28;20561;-81
2023/01/31 09:10:29;;;;;;;4.60;1.10;;;;;;;;;;6211333;28;20289;-81
2023/01/31 09:13:35;;;;;;;1.03;0.90;;;;;;;;;;6194611;28;20305;-79
2023/01/31 09:16:41;;;;;;;0.70;0.70;;;;;;;;;;6195463;28;20289;-79
2023/01/31 09:19:49;;;;;;;0.93;0.93;;;;;;;;;;6193488;28;20304;-80
2023/01/31 09:22:56;;;;;;;3.37;1.63;;;;;;;;;;6211630;28;20275;-80
2023/01/31 09:26:01;;;;;;;1.03;0.90;;;;;;;;;;6211659;28;20283;-80
2023/01/31 09:29:06;;;;;;;2.80;1.07;;;;;;;;;;6211309;28;20298;-80
2023/01/31 09:32:13;;;;;;;6.40;0.97;;;;;;;;;;6212647;28;20302;-80
2023/01/31 09:35:20;;;;;;;4.17;1.17;;;;;;;;;;6211336;28;20288;-80
2023/01/31 09:38:27;;;;;;;3.90;1.50;;;;;;;;;;6212050;28;20291;-80
2023/01/31 09:41:36;;;;;;;3.33;1.30;;;;;;;;;;6211688;28;20290;-80
2023/01/31 09:44:43;;;;;;;5.17;1.67;;;;;;;;;;6211373;28;20303;-80
2023/01/31 09:47:51;;;;;;;5.70;1.10;;;;;;;;;;6215741;28;20300;-80
2023/01/31 09:50:57;;;;;;;1.40;0.90;;;;;;;;;;6217277;28;20298;-81
2023/01/31 09:54:19;;;;;;;8.30;1.70;;;;;;;;;;6214749;28;20302;-81
2023/01/31 09:57:39;;;;;;;2.87;0.90;;;;;;;;;;6217181;28;20297;-80
2023/01/31 10:00:48;;;;;;;3.30;1.20;;;;;;;;;;6215846;28;20291;-80
2023/01/31 10:04:32;;;;;;;5.83;1.20;;;;;;;;;;6216249;28;20311;-81
2023/01/31 10:07:41;;;;;;;4.40;0.90;;;;;;;;;;6178762;28;20314;-80
2023/01/31 10:10:51;;;;;;;2.20;1.20;;;;;;;;;;6192577;28;20302;-80
2023/01/31 10:13:58;;;;;;;1.00;1.00;;;;;;;;;;6190603;28;20302;-80
2023/01/31 10:17:10;;;;;;;0.80;0.80;;;;;;;;;;6191886;28;20277;-79
2023/01/31 10:20:21;;;;;;;4.33;0.97;;;;;;;;;;6191352;28;20307;-80
2023/01/31 10:23:30;;;;;;;1.37;1.37;;;;;;;;;;6191447;28;20303;-80
2023/01/31 10:26:40;;;;;;;6.80;1.67;;;;;;;;;;6192315;28;20311;-81
2023/01/31 10:29:50;;;;;;;4.30;1.00;;;;;;;;;;6190920;28;20302;-81
2023/01/31 10:33:00;;;;;;;8.47;1.13;;;;;;;;;;6191904;28;20300;-79
2023/01/31 10:36:10;;;;;;;1.00;0.83;;;;;;;;;;6191654;28;20292;-80
2023/01/31 10:39:19;;;;;;;4.37;0.90;;;;;;;;;;6189340;28;20298;-81
2023/01/31 10:42:31;;;;;;;1.90;0.90;;;;;;;;;;6191458;28;20298;-81
2023/01/31 10:45:37;;;;;;;2.13;0.90;;;;;;;;;;6192499;28;20303;-81
2023/01/31 10:48:45;;;;;;;2.33;0.87;;;;;;;;;;6190118;28;20470;-81
2023/01/31 10:52:07;;;;;;;28.60;2.27;;;;;;;;;;6191580;28;20302;-80
2023/01/31 10:55:49;;;;;;;10.97;1.23;;;;;;;;;;6191856;28;20323;-80
2023/01/31 10:58:59;;;;;;;1.33;0.97;;;;;;;;;;6173956;28;20286;-79
2023/01/31 11:02:04;;;;;;;7.03;1.60;;;;;;;;;;6206703;28;20224;-81
2023/01/31 11:05:18;;;;;;;4.73;0.93;;;;;;;;;;6189669;28;20254;-79
2023/01/31 11:08:33;;;;;;;7.17;0.80;;;;;;;;;;6171970;28;20297;-80
2023/01/31 11:11:54;;;;;;;3.17;0.80;;;;;;;;;;6185648;28;20556;-81
2023/01/31 11:15:07;;;;;;;2.23;0.90;;;;;;;;;;6190732;28;20301;-81
2023/01/31 11:18:15;;;;;;;6.27;1.00;;;;;;;;;;6190856;28;20291;-81
2023/01/31 11:21:22;;;;;;;2.33;1.07;;;;;;;;;;6192943;28;20296;-80
2023/01/31 11:24:30;;;;;;;5.03;0.90;;;;;;;;;;6192165;28;20302;-80
2023/01/31 11:27:40;;;;;;;0.80;0.80;;;;;;;;;;6159467;28;20301;-80
2023/01/31 11:30:49;;;;;;;1.63;0.90;;;;;;;;;;6189174;28;20293;-80
2023/01/31 11:33:59;;;;;;;3.20;1.03;;;;;;;;;;6190509;28;20301;-80
2023/01/31 11:37:13;;;;;;;1.87;0.87;;;;;;;;;;6189789;28;20308;-81
2023/01/31 11:40:24;;;;;;;2.03;0.80;;;;;;;;;;6189591;28;20299;-80
2023/01/31 11:43:31;;;;;;;3.37;1.13;;;;;;;;;;6171394;28;20293;-81
2023/01/31 11:46:44;;;;;;;0.80;0.80;;;;;;;;;;6173510;28;20296;-80
2023/01/31 11:50:05;;;;;;;3.73;0.90;;;;;;;;;;6190670;28;20499;-81
2023/01/31 11:53:28;;;;;;;5.57;1.00;;;;;;;;;;6191301;28;20304;-80
2023/01/31 11:56:36;;;;;;;10.37;1.17;;;;;;;;;;6191272;28;20303;-80
2023/01/31 11:59:41;;;;;;;4.87;1.00;;;;;;;;;;6189837;28;20291;-81
2023/01/31 12:02:54;;;;;;;1.43;0.80;;;;;;;;;;6195759;28;20301;-81
2023/01/31 12:06:02;;;;;;;3.63;1.00;;;;;;;;;;6201302;28;20301;-80
2023/01/31 12:09:23;;;;;;;2.97;0.90;;;;;;;;;;6199278;28;20298;-80
2023/01/31 12:12:31;;;;;;;3.00;1.10;;;;;;;;;;6152686;28;20252;-80
2023/01/31 12:15:36;;;;;;;5.00;1.00;;;;;;;;;;6150486;28;20302;-80
2023/01/31 12:18:57;;;;;;;1.40;0.90;;;;;;;;;;6142588;28;20298;-81
2023/01/31 12:22:06;;;;;;;7.27;1.00;;;;;;;;;;6141904;29;20295;-81
2023/01/31 12:25:20;;;;;;;4.27;1.00;;;;;;;;;;6141670;28;20298;-83
2023/01/31 12:28:35;;;;;;;2.07;1.13;;;;;;;;;;6141144;28;20297;-82
2023/01/31 12:31:51;;;;;;;6.23;1.40;;;;;;;;;;6141966;28;20301;-82
2023/01/31 12:35:24;;;;;;;5.43;0.97;;;;;;;;;;6132985;28;20306;-82
2023/01/31 12:38:55;;;;;;;6.77;1.07;;;;;;;;;;6142722;28;20287;-82
2023/01/31 12:42:11;;;;;;;5.27;1.10;;;;;;;;;;6142653;28;20300;-82
2023/01/31 12:45:33;;;;;;;1.70;0.90;;;;;;;;;;6141910;29;20295;-80
2023/01/31 12:49:15;;;;;;;2.03;1.00;;;;;;;;;;6144090;28;20298;-81
2023/01/31 12:52:29;;;;;;;5.83;1.20;;;;;;;;;;6137113;28;20298;-80
2023/01/31 12:55:47;;;;;;;7.13;1.23;;;;;;;;;;6140554;28;20487;-82
2023/01/31 12:58:57;;;;;;;2.50;0.90;;;;;;;;;;6138335;28;20306;-81
2023/01/31 13:02:33;;;;;;;10.03;0.80;;;;;;;;;;6140292;28;20406;-81
2023/01/31 13:05:44;;;;;;;2.03;1.10;;;;;;;;;;6181646;28;20300;-81
2023/01/31 13:08:55;;;;;;;1.17;0.90;;;;;;;;;;6187657;28;20297;-81
2023/01/31 13:12:14;;;;;;;0.93;0.90;;;;;;;;;;6187493;28;20318;-81
2023/01/31 13:15:26;;;;;;;2.13;0.97;;;;;;;;;;6187271;28;20302;-81
2023/01/31 13:18:34;;;;;;;0.77;0.77;;;;;;;;;;6186814;28;20296;-82
2023/01/31 13:21:43;;;;;;;4.13;0.80;;;;;;;;;;6170203;28;20293;-81
2023/01/31 13:24:54;;;;;;;2.50;1.10;;;;;;;;;;6187286;28;20297;-82
2023/01/31 13:28:03;;;;;;;5.03;0.97;;;;;;;;;;6187184;28;20297;-82
2023/01/31 13:31:15;;;;;;;0.90;0.90;;;;;;;;;;6187298;28;20295;-82
2023/01/31 13:34:24;;;;;;;3.00;1.10;;;;;;;;;;6187499;28;20307;-81
2023/01/31 13:37:32;;;;;;;2.43;1.10;;;;;;;;;;6187462;28;20294;-81
2023/01/31 13:40:45;;;;;;;4.23;0.80;;;;;;;;;;6186805;28;20296;-80
2023/01/31 13:43:50;;;;;;;3.40;0.90;;;;;;;;;;6188220;28;20300;-80
2023/01/31 13:47:01;;;;;;;2.83;1.27;;;;;;;;;;6187310;28;20277;-81
2023/01/31 13:50:11;;;;;;;6.03;1.00;;;;;;;;;;6186561;28;20296;-80
2023/01/31 13:53:22;;;;;;;5.70;1.27;;;;;;;;;;6186754;28;20294;-81
2023/01/31 13:56:30;;;;;;;7.57;1.00;;;;;;;;;;6170290;28;20317;-81
2023/01/31 13:59:38;;;;;;;4.03;1.63;;;;;;;;;;6186858;28;20309;-81
2023/01/31 14:03:03;;;;;;;7.00;1.30;;;;;;;;;;6186825;28;20281;-80
2023/01/31 14:06:10;;;;;;;4.13;1.00;;;;;;;;;;6139590;29;20316;-82
2023/01/31 14:09:24;;;;;;;3.93;1.00;;;;;;;;;;6139705;28;20303;-81
2023/01/31 14:12:36;;;;;;;8.83;1.13;;;;;;;;;;6139811;28;20297;-81
2023/01/31 14:15:49;;;;;;;15.03;1.53;;;;;;;;;;6137770;29;20300;-81
2023/01/31 14:18:55;;;;;;;3.60;1.00;;;;;;;;;;6153312;29;20304;-81
2023/01/31 14:22:13;;;;;;;1.63;0.97;;;;;;;;;;6123342;29;20294;-81
2023/01/31 14:25:41;;;;;;;5.90;1.20;;;;;;;;;;6137912;28;20312;-81
2023/01/31 14:28:47;;;;;;;9.03;1.13;;;;;;;;;;6138712;28;20306;-81
2023/01/31 14:31:56;;;;;;;5.23;1.20;;;;;;;;;;6138039;28;20456;-81
2023/01/31 14:35:18;;;;;;;12.63;1.30;;;;;;;;;;6141123;28;20312;-80
2023/01/31 14:38:31;;;;;;;3.13;1.50;;;;;;;;;;6142653;28;20562;-81
2023/01/31 14:42:13;;;;;;;4.73;1.00;;;;;;;;;;6143127;29;20292;-82
2023/01/31 14:45:42;;;;;;;2.70;1.13;;;;;;;;;;6143174;28;20305;-82
2023/01/31 14:49:05;;;;;;;5.00;1.20;;;;;;;;;;6141702;29;20296;-82
2023/01/31 14:52:37;;;;;;;4.70;1.30;;;;;;;;;;6143757;29;20302;-82
2023/01/31 14:55:57;;;;;;;6.83;1.43;;;;;;;;;;6142886;28;20627;-82
2023/01/31 14:59:03;;;;;;;4.60;1.60;;;;;;;;;;6142554;28;20304;-82
2023/01/31 15:02:25;;;;;;;8.50;1.40;;;;;;;;;;6143112;29;20563;-81
2023/01/31 15:05:45;;;;;;;2.73;1.93;;;;;;;;;;6176361;28;20303;-81
2023/01/31 15:08:51;;;;;;;4.03;1.33;;;;;;;;;;6166658;28;20298;-82
2023/01/31 15:11:57;;;;;;;3.27;1.27;;;;;;;;;;6186506;28;20298;-82
2023/01/31 15:15:04;;;;;;;2.63;1.40;;;;;;;;;;6190402;28;20294;-81
2023/01/31 15:18:18;;;;;;;7.23;1.50;;;;;;;;;;6190249;28;20299;-82
2023/01/31 15:21:27;;;;;;;3.90;2.00;;;;;;;;;;6174469;28;20595;-81
2023/01/31 15:24:34;;;;;;;10.60;1.60;;;;;;;;;;6190376;28;20291;-82
2023/01/31 15:27:42;;;;;;;1.30;1.00;;;;;;;;;;6189925;28;20307;-81
2023/01/31 15:30:48;;;;;;;8.90;1.70;;;;;;;;;;6189489;28;20313;-81
2023/01/31 15:34:08;;;;;;;5.33;1.30;;;;;;;;;;6189900;28;20300;-82
2023/01/31 15:37:19;;;;;;;13.80;1.80;;;;;;;;;;6172777;28;20296;-82
2023/01/31 15:40:27;;;;;;;5.23;1.30;;;;;;;;;;6188289;28;20462;-82
2023/01/31 15:43:37;;;;;;;2.73;1.43;;;;;;;;;;6189317;28;20296;-82
2023/01/31 15:46:44;;;;;;;19.73;1.67;;;;;;;;;;6171892;28;20293;-81
2023/01/31 15:49:51;;;;;;;8.83;1.53;;;;;;;;;;6188298;28;20303;-82
2023/01/31 15:52:57;;;;;;;8.10;1.47;;;;;;;;;;6187732;28;20472;-81
2023/01/31 15:56:05;;;;;;;4.87;1.40;;;;;;;;;;6172749;28;20359;-80
2023/01/31 15:59:14;;;;;;;14.20;1.50;;;;;;;;;;6188649;28;20304;-81
2023/01/31 16:02:23;;;;;;;11.50;1.70;;;;;;;;;;6188897;28;20298;-82
2023/01/31 16:05:31;;;;;;;13.23;1.63;;;;;;;;;;6171978;28;20464;-82
2023/01/31 16:08:39;;;;;;;6.83;2.13;;;;;;;;;;6188821;28;20287;-82
2023/01/31 16:11:45;;;;;;;9.67;2.07;;;;;;;;;;6171327;28;20298;-82
2023/01/31 16:14:53;;;;;;;8.53;1.67;;;;;;;;;;6165416;28;20313;-83
2023/01/31 16:18:02;;;;;;;9.57;1.93;;;;;;;;;;6163550;28;20308;-82
2023/01/31 16:21:27;;;;;;;5.67;1.93;;;;;;;;;;6164348;28;20298;-80
2023/01/31 16:24:34;;;;;;;6.93;2.20;;;;;;;;;;6163748;28;20304;-81
2023/01/31 16:27:44;;;;;;;11.80;1.97;;;;;;;;;;6165294;28;20298;-82
2023/01/31 16:30:49;;;;;;;3.13;1.77;;;;;;;;;;6153008;28;20613;-81
2023/01/31 16:33:56;;;;;;;4.43;2.10;;;;;;;;;;6164956;28;20287;-83
2023/01/31 16:37:04;;;;;;;6.10;2.17;;;;;;;;;;6166207;28;20303;-80
2023/01/31 16:40:21;;;;;;;4.73;2.30;;;;;;;;;;6164813;28;20313;-80
2023/01/31 16:43:31;;;;;;;7.70;1.80;;;;;;;;;;6172567;28;20303;-81
2023/01/31 16:46:43;;;;;;;5.43;1.80;;;;;;;;;;6180928;28;20247;-80
2023/01/31 16:49:49;;;;;;;4.63;1.97;;;;;;;;;;6179479;28;20258;-81
2023/01/31 16:53:12;;;;;;;11.40;3.13;;;;;;;;;;6167143;28;20286;-81
2023/01/31 16:56:22;;;;;;;11.70;3.17;;;;;;;;;;6164479;28;20297;-81
2023/01/31 16:59:46;;;;;;;3.30;2.10;;;;;;;;;;6165075;28;20305;-83
2023/01/31 17:02:52;;;;;;;12.83;2.70;;;;;;;;;;6164238;28;20306;-83
2023/01/31 17:05:57;;;;;;;4.10;1.67;;;;;;;;;;6212142;28;20311;-80
2023/01/31 17:09:06;;;;;;;6.57;2.53;;;;;;;;;;6213409;28;20302;-82
2023/01/31 17:12:19;;;;;;;5.53;2.47;;;;;;;;;;6196499;28;20302;-82
2023/01/31 17:15:24;;;;;;;8.30;2.87;;;;;;;;;;6179885;28;20588;-81
2023/01/31 17:18:32;;;;;;;8.53;2.70;;;;;;;;;;6212862;28;20311;-82
2023/01/31 17:21:40;;;;;;;11.40;3.00;;;;;;;;;;6213334;28;20296;-81
2023/01/31 17:24:47;;;;;;;7.50;2.50;;;;;;;;;;6210890;28;20299;-82
2023/01/31 17:28:00;;;;;;;3.60;2.03;;;;;;;;;;6211995;28;20312;-81
2023/01/31 17:31:05;;;;;;;11.90;2.10;;;;;;;;;;6211601;28;20304;-80
2023/01/31 17:34:14;;;;;;;8.00;1.97;;;;;;;;;;6212014;28;20297;-81
2023/01/31 17:37:20;;;;;;;6.37;1.90;;;;;;;;;;6211680;28;20296;-80
2023/01/31 17:40:39;;;;;;;3.53;2.30;;;;;;;;;;6211466;28;20298;-79
2023/01/31 17:43:46;;;;;;;8.33;2.63;;;;;;;;;;6211491;28;20299;-79
2023/01/31 17:46:51;;;;;;;9.90;2.23;;;;;;;;;;6187788;28;20284;-81
2023/01/31 17:49:58;;;;;;;3.80;2.50;;;;;;;;;;6214938;28;20312;-81
2023/01/31 17:53:04;;;;;;;6.93;2.67;;;;;;;;;;6179031;28;20310;-83
2023/01/31 17:56:13;;;;;;;11.07;2.73;;;;;;;;;;6211627;28;20312;-79
2023/01/31 17:59:18;;;;;;;4.60;2.70;;;;;;;;;;6193968;28;20303;-79
2023/01/31 18:02:31;;;;;;;8.07;2.80;;;;;;;;;;6210022;28;20290;-80
2023/01/31 18:05:38;;;;;;;7.23;2.60;;;;;;;;;;6194644;28;20300;-84
2023/01/31 18:08:44;;;;;;;9.03;2.60;;;;;;;;;;6197815;28;20285;-82
2023/01/31 18:11:52;;;;;;;8.47;2.30;;;;;;;;;;6217262;28;20296;-80
2023/01/31 18:14:59;;;;;;;7.83;2.30;;;;;;;;;;6199300;28;20301;-80
2023/01/31 18:18:12;;;;;;;7.63;2.40;;;;;;;;;;6199904;28;20296;-81
2023/01/31 18:21:20;;;;;;;2.93;1.90;;;;;;;;;;6198833;28;20310;-80
2023/01/31 18:24:25;;;;;;;6.80;1.70;;;;;;;;;;6215026;28;20297;-81
2023/01/31 18:27:32;;;;;;;2.40;1.70;;;;;;;;;;6192784;28;20301;-81
2023/01/31 18:30:38;;;;;;;6.70;2.00;;;;;;;;;;6193672;28;20594;-82
2023/01/31 18:33:44;;;;;;;3.47;1.90;;;;;;;;;;6221587;28;20299;-80
2023/01/31 18:36:49;;;;;;;5.67;2.23;;;;;;;;;;6222298;28;20300;-81
2023/01/31 18:39:54;;;;;;;4.83;2.00;;;;;;;;;;6198491;28;20304;-83
2023/01/31 18:43:01;;;;;;;2.30;1.93;;;;;;;;;;6215587;28;20587;-83
2023/01/31 18:46:06;;;;;;;1.97;1.77;;;;;;;;;;6217386;28;20293;-83
2023/01/31 18:49:11;;;;;;;7.30;2.30;;;;;;;;;;6215525;28;20607;-83
2023/01/31 18:52:16;;;;;;;9.63;2.90;;;;;;;;;;6216183;28;20301;-84
2023/01/31 18:55:22;;;;;;;9.80;3.93;;;;;;;;;;6216301;28;20305;-84
2023/01/31 18:58:32;;;;;;;10.13;3.43;;;;;;;;;;6215521;28;20296;-80
2023/01/31 19:01:39;;;;;;;8.27;3.13;;;;;;;;;;6214879;28;20304;-81
2023/01/31 19:04:47;;;;;;;6.63;3.30;;;;;;;;;;6214235;28;20304;-81
2023/01/31 19:07:52;;;;;;;6.33;3.50;;;;;;;;;;6213908;28;20269;-81